createdAt,value
2019-03-30T00:01:49.216Z,71.29
2019-03-30T00:04:17.577Z,71.67
2019-03-30T00:06:45.968Z,71.90
2019-03-30T00:09:14.387Z,72.33
2019-03-30T00:11:43.138Z,71.17
2019-03-30T00:14:11.530Z,70.95
2019-03-30T00:16:39.952Z,70.64
2019-03-30T00:19:08.345Z,70.62
2019-03-30T00:21:36.741Z,70.66
2019-03-30T00:24:05.320Z,71.63
2019-03-30T00:26:33.712Z,72.21
2019-03-30T00:29:02.109Z,72.04
2019-03-30T00:31:30.525Z,72.63
2019-03-30T00:33:58.911Z,72.61
2019-03-30T00:36:27.315Z,72.05
2019-03-30T00:38:55.716Z,71.51
2019-03-30T00:41:24.121Z,72.33
2019-03-30T00:43:52.518Z,72.69
2019-03-30T00:46:20.928Z,73.67
2019-03-30T00:48:49.749Z,73.43
2019-03-30T00:51:18.186Z,72.33
2019-03-30T00:53:46.602Z,72.00
2019-03-30T00:56:14.993Z,70.70
2019-03-30T00:58:43.383Z,72.57
2019-03-30T01:01:11.971Z,74.33
2019-03-30T01:03:40.612Z,74.49
2019-03-30T01:06:09.296Z,75.05
2019-03-30T01:08:37.689Z,74.12
2019-03-30T01:11:06.083Z,73.85
2019-03-30T01:13:34.854Z,74.37
2019-03-30T01:16:03.250Z,75.04
2019-03-30T01:18:31.751Z,73.71
2019-03-30T01:21:00.139Z,73.47
2019-03-30T01:23:28.523Z,73.47
2019-03-30T01:25:56.940Z,73.47
2019-03-30T01:28:25.335Z,74.47
2019-03-30T01:30:53.725Z,75.32
2019-03-30T01:33:22.152Z,74.56
2019-03-30T01:35:51.123Z,73.46
2019-03-30T01:38:19.516Z,73.34
2019-03-30T01:40:48.164Z,73.81
2019-03-30T01:43:16.554Z,71.94
2019-03-30T01:45:44.952Z,72.70
2019-03-30T01:48:13.381Z,74.15
2019-03-30T01:50:41.776Z,77.79
2019-03-30T01:53:10.164Z,77.27
2019-03-30T01:55:38.575Z,76.10
2019-03-30T01:58:06.966Z,75.77
2019-03-30T02:00:35.426Z,75.69
2019-03-30T02:03:03.835Z,74.56
2019-03-30T02:05:32.232Z,73.55
2019-03-30T02:08:00.641Z,73.76
2019-03-30T02:10:45.999Z,72.95
2019-03-30T02:13:14.462Z,73.86
2019-03-30T02:15:42.921Z,74.78
2019-03-30T02:18:11.354Z,75.03
2019-03-30T02:20:42.469Z,75.45
2019-03-30T02:23:11.392Z,75.80
2019-03-30T02:25:39.886Z,75.14
2019-03-30T02:28:08.819Z,75.34
2019-03-30T02:30:37.554Z,75.64
2019-03-30T02:33:06.127Z,76.90
2019-03-30T02:35:34.517Z,76.63
2019-03-30T02:38:02.914Z,75.22
2019-03-30T02:40:31.400Z,76.70
2019-03-30T02:43:00.323Z,77.07
2019-03-30T02:45:28.714Z,75.71
2019-03-30T02:47:57.121Z,73.19
2019-03-30T02:50:25.512Z,72.92
2019-03-30T02:52:54.356Z,73.10
2019-03-30T02:55:22.772Z,72.63
2019-03-30T02:57:51.165Z,73.88
2019-03-30T03:00:19.862Z,74.20
2019-03-30T03:02:48.284Z,74.75
2019-03-30T03:05:17.014Z,75.73
2019-03-30T03:07:45.406Z,76.85
2019-03-30T03:10:14.677Z,77.15
2019-03-30T03:12:43.075Z,76.93
2019-03-30T03:15:11.924Z,77.46
2019-03-30T03:17:40.327Z,76.31
2019-03-30T03:20:08.960Z,77.29
2019-03-30T03:22:37.657Z,75.99
2019-03-30T03:25:07.069Z,75.36
2019-03-30T03:27:35.465Z,75.58
2019-03-30T03:30:04.572Z,77.46
2019-03-30T03:32:33.000Z,77.29
2019-03-30T03:35:01.426Z,75.73
2019-03-30T03:37:43.559Z,75.30
2019-03-30T03:40:00.614Z,74.54
2019-03-30T03:42:28.970Z,73.22
2019-03-30T03:44:57.382Z,74.14
2019-03-30T03:47:25.801Z,75.20
2019-03-30T03:49:54.183Z,76.05
2019-03-30T03:52:23.028Z,76.57
2019-03-30T03:54:53.099Z,76.65
2019-03-30T03:57:23.702Z,76.02
2019-03-30T03:59:53.477Z,76.10
2019-03-30T04:02:25.635Z,75.71
2019-03-30T04:04:55.762Z,75.77
2019-03-30T04:07:24.832Z,76.13
2019-03-30T04:09:54.712Z,75.60
2019-03-30T04:12:23.954Z,74.24
2019-03-30T04:14:53.610Z,74.43
2019-03-30T04:17:22.250Z,75.82
2019-03-30T04:19:50.624Z,78.08
2019-03-30T04:22:19.049Z,78.90
2019-03-30T04:24:47.452Z,79.32
2019-03-30T04:27:15.845Z,80.21
2019-03-30T04:29:44.243Z,78.68
2019-03-30T04:32:12.629Z,79.04
2019-03-30T04:34:41.403Z,77.46
2019-03-30T04:37:09.799Z,77.13
2019-03-30T04:39:38.213Z,76.45
2019-03-30T04:42:06.695Z,77.15
2019-03-30T04:44:35.178Z,77.42
2019-03-30T04:47:03.574Z,78.23
2019-03-30T04:49:31.987Z,77.81
2019-03-30T04:52:00.377Z,77.44
2019-03-30T04:54:28.767Z,77.36
2019-03-30T04:56:57.189Z,77.36
2019-03-30T04:59:25.578Z,77.29
2019-03-30T05:01:53.974Z,77.33
2019-03-30T05:04:22.641Z,77.53
2019-03-30T05:06:51.040Z,78.20
2019-03-30T05:09:19.422Z,77.96
2019-03-30T05:11:48.189Z,76.98
2019-03-30T05:14:16.579Z,77.62
2019-03-30T05:16:44.971Z,76.80
2019-03-30T05:19:13.745Z,77.25
2019-03-30T05:21:42.139Z,77.72
2019-03-30T05:24:10.526Z,78.24
2019-03-30T05:26:38.938Z,78.82
2019-03-30T05:29:07.326Z,79.06
2019-03-30T05:31:35.719Z,79.48
2019-03-30T05:34:04.129Z,79.52
2019-03-30T05:36:32.527Z,78.98
2019-03-30T05:39:01.104Z,78.67
2019-03-30T05:41:29.492Z,78.30
2019-03-30T05:43:57.883Z,78.23
2019-03-30T05:46:26.293Z,79.93
2019-03-30T05:48:54.683Z,78.79
2019-03-30T05:51:23.097Z,78.58
2019-03-30T05:53:51.490Z,78.90
2019-03-30T05:56:19.891Z,78.39
2019-03-30T05:58:48.302Z,78.71
2019-03-30T06:01:16.693Z,78.24
2019-03-30T06:03:45.081Z,78.22
2019-03-30T06:06:13.497Z,78.21
2019-03-30T06:08:41.899Z,78.31
2019-03-30T06:11:10.297Z,78.59
2019-03-30T06:13:38.725Z,78.63
2019-03-30T06:16:07.123Z,78.86
2019-03-30T06:18:35.534Z,79.38
2019-03-30T06:21:03.949Z,79.04
2019-03-30T06:23:32.344Z,79.88
2019-03-30T06:26:00.741Z,79.92
2019-03-30T06:28:29.295Z,78.85
2019-03-30T06:30:59.288Z,79.10
2019-03-30T06:33:27.664Z,77.41
2019-03-30T06:35:56.091Z,75.97
2019-03-30T06:38:24.559Z,77.51
2019-03-30T06:40:52.957Z,78.55
2019-03-30T06:43:21.362Z,78.51
2019-03-30T06:45:49.829Z,78.54
2019-03-30T06:48:18.540Z,76.53
2019-03-30T06:50:46.934Z,75.61
2019-03-30T06:53:15.330Z,73.35
2019-03-30T06:55:43.749Z,73.06
2019-03-30T06:58:12.143Z,71.80
2019-03-30T07:00:40.586Z,71.41
2019-03-30T07:03:12.031Z,71.09
2019-03-30T07:05:41.966Z,71.40
2019-03-30T07:08:12.904Z,70.20
2019-03-30T07:10:42.971Z,67.92
2019-03-30T07:13:11.372Z,68.03
2019-03-30T07:15:48.461Z,68.18
2019-03-30T07:18:17.594Z,67.22
2019-03-30T07:20:45.991Z,65.69
2019-03-30T07:23:14.409Z,64.84
2019-03-30T07:25:42.815Z,65.45
2019-03-30T07:28:11.205Z,65.88
2019-03-30T07:30:39.623Z,64.73
2019-03-30T07:33:08.022Z,63.58
2019-03-30T07:35:36.762Z,63.00
2019-03-30T07:38:05.172Z,60.48
2019-03-30T07:40:34.019Z,60.07
2019-03-30T07:43:02.539Z,60.71
2019-03-30T07:45:31.104Z,59.32
2019-03-30T07:47:59.508Z,59.34
2019-03-30T07:50:27.913Z,59.46
2019-03-30T07:52:56.333Z,59.08
2019-03-30T07:55:24.744Z,58.78
2019-03-30T07:57:53.196Z,57.67
2019-03-30T08:00:22.035Z,59.09
2019-03-30T08:02:50.446Z,57.65
2019-03-30T08:05:18.851Z,57.23
2019-03-30T08:07:48.179Z,56.58
2019-03-30T08:10:16.748Z,56.87
2019-03-30T08:12:45.223Z,56.38
2019-03-30T08:15:13.888Z,56.75
2019-03-30T08:17:42.365Z,55.26
2019-03-30T08:20:10.931Z,54.54
2019-03-30T08:22:39.372Z,54.44
2019-03-30T08:25:08.124Z,54.97
2019-03-30T08:27:36.518Z,54.46
2019-03-30T08:30:06.793Z,54.59
2019-03-30T08:32:35.205Z,53.66
2019-03-30T08:35:04.141Z,53.57
2019-03-30T08:37:32.693Z,53.59
2019-03-30T08:40:01.094Z,54.42
2019-03-30T08:42:29.496Z,53.58
2019-03-30T08:44:57.919Z,53.50
2019-03-30T08:47:26.314Z,52.00
2019-03-30T08:49:54.730Z,51.23
2019-03-30T08:52:23.150Z,51.00
2019-03-30T08:54:51.722Z,49.43
2019-03-30T08:57:20.119Z,48.89
2019-03-30T08:59:48.550Z,48.97
2019-03-30T09:02:16.956Z,48.83
2019-03-30T09:04:45.368Z,47.75
2019-03-30T09:07:13.825Z,48.40
2019-03-30T09:09:42.213Z,47.37
2019-03-30T09:12:10.612Z,47.74
2019-03-30T09:14:39.114Z,47.34
2019-03-30T09:17:07.515Z,47.76
2019-03-30T09:19:35.908Z,48.00
2019-03-30T09:22:04.344Z,46.69
2019-03-30T09:24:32.755Z,47.49
2019-03-30T09:27:01.161Z,46.31
2019-03-30T09:29:29.590Z,44.65
2019-03-30T09:31:57.997Z,44.14
2019-03-30T09:34:26.394Z,43.80
2019-03-30T09:36:54.910Z,43.72
2019-03-30T09:39:23.630Z,44.45
2019-03-30T09:41:51.984Z,44.08
2019-03-30T09:44:20.414Z,44.75
2019-03-30T09:46:48.825Z,43.90
2019-03-30T09:49:17.226Z,45.47
2019-03-30T09:51:45.765Z,45.02
2019-03-30T09:54:23.661Z,43.20
2019-03-30T09:56:44.315Z,44.25
2019-03-30T09:59:12.755Z,43.08
2019-03-30T10:01:41.157Z,42.06
2019-03-30T10:04:09.557Z,41.63
2019-03-30T10:06:37.990Z,41.41
2019-03-30T10:09:06.835Z,40.92
2019-03-30T10:11:35.237Z,40.13
2019-03-30T10:14:03.689Z,42.41
2019-03-30T10:16:32.109Z,42.67
2019-03-30T10:19:00.511Z,42.28
2019-03-30T10:21:28.915Z,38.49
2019-03-30T10:23:57.972Z,35.24
2019-03-30T10:26:27.330Z,36.08
2019-03-30T10:28:55.735Z,34.60
2019-03-30T10:31:24.154Z,34.70
2019-03-30T10:33:52.555Z,36.65
2019-03-30T10:36:20.963Z,33.54
2019-03-30T10:38:49.387Z,33.30
2019-03-30T10:41:17.795Z,33.21
2019-03-30T10:43:46.194Z,32.13
2019-03-30T10:46:14.646Z,30.19
2019-03-30T10:48:43.100Z,30.29
2019-03-30T10:51:11.515Z,31.83
2019-03-30T10:53:39.932Z,30.58
2019-03-30T10:56:08.335Z,28.59
2019-03-30T10:58:36.757Z,28.75
2019-03-30T11:01:05.173Z,27.89
2019-03-30T11:03:33.561Z,28.25
2019-03-30T11:06:01.994Z,29.65
2019-03-30T11:08:30.528Z,28.74
2019-03-30T11:10:58.931Z,29.09
2019-03-30T11:13:27.335Z,29.49
2019-03-30T11:15:55.756Z,28.58
2019-03-30T11:18:24.152Z,28.83
2019-03-30T11:20:52.560Z,29.70
2019-03-30T11:23:20.992Z,27.66
2019-03-30T11:25:49.424Z,26.61
2019-03-30T11:28:17.819Z,27.56
2019-03-30T11:30:46.247Z,26.71
2019-03-30T11:33:14.654Z,26.99
2019-03-30T11:35:43.063Z,27.08
2019-03-30T11:38:11.519Z,28.45
2019-03-30T11:40:39.992Z,27.80
2019-03-30T11:43:08.395Z,28.90
2019-03-30T11:45:36.833Z,29.30
2019-03-30T11:48:05.560Z,27.85
2019-03-30T11:50:33.969Z,26.29
2019-03-30T11:53:02.402Z,26.74
2019-03-30T11:55:30.807Z,27.95
2019-03-30T11:57:59.201Z,28.09
2019-03-30T12:00:27.625Z,27.12
2019-03-30T12:02:56.031Z,28.88
2019-03-30T12:05:24.425Z,25.20
2019-03-30T12:07:52.913Z,26.19
2019-03-30T12:10:21.309Z,24.89
2019-03-30T12:12:49.738Z,25.54
2019-03-30T12:15:18.139Z,24.90
2019-03-30T12:17:46.535Z,24.52
2019-03-30T12:20:15.128Z,25.38
2019-03-30T12:22:43.520Z,25.05
2019-03-30T12:25:12.396Z,24.09
2019-03-30T12:27:40.786Z,25.42
2019-03-30T12:30:09.515Z,24.00
2019-03-30T12:32:37.939Z,25.67
2019-03-30T12:35:08.073Z,25.09
2019-03-30T12:37:37.004Z,24.46
2019-03-30T12:40:07.057Z,26.30
2019-03-30T12:42:35.446Z,25.14
2019-03-30T12:45:05.943Z,25.30
2019-03-30T12:47:34.339Z,25.32
2019-03-30T12:50:03.211Z,24.82
2019-03-30T12:52:31.723Z,24.85
2019-03-30T12:55:00.383Z,24.71
2019-03-30T12:57:28.853Z,25.91
2019-03-30T12:59:59.224Z,25.89
2019-03-30T13:02:27.458Z,25.53
2019-03-30T13:04:55.848Z,24.77
2019-03-30T13:07:24.256Z,23.98
2019-03-30T13:09:52.714Z,25.38
2019-03-30T13:12:21.114Z,25.44
2019-03-30T13:14:49.886Z,24.87
2019-03-30T13:17:18.340Z,23.90
2019-03-30T13:19:46.731Z,22.32
2019-03-30T13:22:15.147Z,23.17
2019-03-30T13:24:43.538Z,24.81
2019-03-30T13:27:13.144Z,24.35
2019-03-30T13:29:41.633Z,22.97
2019-03-30T13:32:10.031Z,25.02
2019-03-30T13:34:38.418Z,22.08
2019-03-30T13:37:17.302Z,24.03
2019-03-30T13:39:46.137Z,23.00
2019-03-30T13:42:14.528Z,23.53
2019-03-30T13:44:42.956Z,21.90
2019-03-30T13:47:11.351Z,22.42
2019-03-30T13:49:40.406Z,23.42
2019-03-30T13:52:08.824Z,23.86
2019-03-30T13:54:38.731Z,24.50
2019-03-30T13:57:07.410Z,24.18
2019-03-30T13:59:36.126Z,24.42
2019-03-30T14:02:04.522Z,23.07
2019-03-30T14:04:32.915Z,24.13
2019-03-30T14:07:01.400Z,24.44
2019-03-30T14:09:29.788Z,25.20
2019-03-30T14:11:58.178Z,22.65
2019-03-30T14:14:26.592Z,22.54
2019-03-30T14:16:54.983Z,22.31
2019-03-30T14:19:23.379Z,22.73
2019-03-30T14:21:51.795Z,24.00
2019-03-30T14:24:20.185Z,22.44
2019-03-30T14:26:48.583Z,22.93
2019-03-30T14:29:17.110Z,22.67
2019-03-30T14:31:45.510Z,22.62
2019-03-30T14:34:13.900Z,25.54
2019-03-30T14:36:42.335Z,24.89
2019-03-30T14:39:10.823Z,25.05
2019-03-30T14:41:39.204Z,24.98
2019-03-30T14:44:07.628Z,23.24
2019-03-30T14:46:36.017Z,23.12
2019-03-30T14:49:04.500Z,24.39
2019-03-30T14:51:32.887Z,23.23
2019-03-30T14:54:01.359Z,23.39
2019-03-30T14:56:30.051Z,24.77
2019-03-30T14:59:09.505Z,24.04
2019-03-30T15:01:28.560Z,23.86
2019-03-30T15:03:57.065Z,24.69
2019-03-30T15:06:25.455Z,24.91
2019-03-30T15:08:53.851Z,25.77
2019-03-30T15:11:22.269Z,24.08
2019-03-30T15:13:50.665Z,23.77
2019-03-30T15:16:19.049Z,25.80
2019-03-30T15:18:47.530Z,24.52
2019-03-30T15:21:15.870Z,26.34
2019-03-30T15:23:44.565Z,25.93
2019-03-30T15:26:12.991Z,25.07
2019-03-30T15:28:42.844Z,25.65
2019-03-30T15:31:11.469Z,24.97
2019-03-30T15:33:39.889Z,25.51
2019-03-30T15:36:08.283Z,25.09
2019-03-30T15:38:36.677Z,25.31
2019-03-30T15:41:05.368Z,25.75
2019-03-30T15:43:38.434Z,25.22
2019-03-30T15:46:03.948Z,25.45
2019-03-30T15:48:32.433Z,24.77
2019-03-30T15:51:00.838Z,24.68
2019-03-30T15:53:29.238Z,24.38
2019-03-30T15:55:57.652Z,24.75
2019-03-30T15:58:26.040Z,24.85
2019-03-30T16:00:54.433Z,24.23
2019-03-30T16:03:23.061Z,24.03
2019-03-30T16:05:51.458Z,24.92
2019-03-30T16:08:19.850Z,25.29
2019-03-30T16:10:48.278Z,25.16
2019-03-30T16:13:16.671Z,23.38
2019-03-30T16:15:45.082Z,23.46
2019-03-30T16:18:13.827Z,23.79
2019-03-30T16:20:42.218Z,23.90
2019-03-30T16:23:10.617Z,24.24
2019-03-30T16:25:39.110Z,26.11
2019-03-30T16:28:07.581Z,26.02
2019-03-30T16:30:36.044Z,24.98
2019-03-30T16:33:04.471Z,25.93
2019-03-30T16:35:32.888Z,26.20
2019-03-30T16:38:01.272Z,27.41
2019-03-30T16:40:29.696Z,27.02
2019-03-30T16:42:58.255Z,27.91
2019-03-30T16:45:26.818Z,26.58
2019-03-30T16:47:55.214Z,28.56
2019-03-30T16:50:23.609Z,28.97
2019-03-30T16:52:52.012Z,29.25
2019-03-30T16:55:20.411Z,29.12
2019-03-30T16:57:48.801Z,28.00
2019-03-30T17:00:17.742Z,28.23
2019-03-30T17:02:46.145Z,27.80
2019-03-30T17:05:14.676Z,28.22
2019-03-30T17:07:43.415Z,28.81
2019-03-30T17:10:12.351Z,28.30
2019-03-30T17:12:40.741Z,30.92
2019-03-30T17:15:10.020Z,30.10
2019-03-30T17:17:38.409Z,32.07
2019-03-30T17:20:08.063Z,31.13
2019-03-30T17:22:36.451Z,33.57
2019-03-30T17:25:06.491Z,33.73
2019-03-30T17:27:35.279Z,34.34
2019-03-30T17:30:05.512Z,34.02
2019-03-30T17:32:33.904Z,33.39
2019-03-30T17:35:02.321Z,33.43
2019-03-30T17:37:30.706Z,32.75
2019-03-30T17:39:59.112Z,33.23
2019-03-30T17:42:27.596Z,35.64
2019-03-30T17:44:56.251Z,35.37
2019-03-30T17:47:24.642Z,36.97
2019-03-30T17:49:53.053Z,36.95
2019-03-30T17:52:21.792Z,36.81
2019-03-30T17:54:50.240Z,39.91
2019-03-30T17:57:18.704Z,39.33
2019-03-30T17:59:47.097Z,39.16
2019-03-30T18:02:15.495Z,39.01
2019-03-30T18:04:43.921Z,42.48
2019-03-30T18:07:13.792Z,41.86
2019-03-30T18:09:43.151Z,40.91
2019-03-30T18:12:11.552Z,40.96
2019-03-30T18:14:39.977Z,41.58
2019-03-30T18:17:08.370Z,42.51
2019-03-30T18:19:37.029Z,42.91
2019-03-30T18:22:05.449Z,42.67
2019-03-30T18:24:33.840Z,43.78
2019-03-30T18:27:02.233Z,44.68
2019-03-30T18:29:30.650Z,45.53
2019-03-30T18:31:59.110Z,44.28
2019-03-30T18:34:28.147Z,45.38
2019-03-30T18:36:57.006Z,45.56
2019-03-30T18:39:25.617Z,46.86
2019-03-30T18:41:53.962Z,46.46
2019-03-30T18:44:22.539Z,47.71
2019-03-30T18:46:50.933Z,47.22
2019-03-30T18:49:19.328Z,47.24
2019-03-30T18:51:47.892Z,47.66
2019-03-30T18:54:16.821Z,47.90
2019-03-30T18:56:45.462Z,48.41
2019-03-30T18:59:13.953Z,48.62
2019-03-30T19:01:42.344Z,49.98
2019-03-30T19:04:10.741Z,49.97
2019-03-30T19:06:39.169Z,50.56
2019-03-30T19:09:08.164Z,50.65
2019-03-30T19:11:36.515Z,50.51
2019-03-30T19:14:05.179Z,51.26
2019-03-30T19:16:33.578Z,50.89
2019-03-30T19:19:01.970Z,51.67
2019-03-30T19:21:30.391Z,51.98
2019-03-30T19:23:58.787Z,52.59
2019-03-30T19:26:27.188Z,52.85
2019-03-30T19:28:56.856Z,52.94
2019-03-30T19:31:25.375Z,53.94
2019-03-30T19:33:53.767Z,53.14
2019-03-30T19:36:22.204Z,51.61
2019-03-30T19:38:50.588Z,52.82
2019-03-30T19:41:18.976Z,52.56
2019-03-30T19:43:47.392Z,52.65
2019-03-30T19:46:15.784Z,52.69
2019-03-30T19:48:44.449Z,53.39
2019-03-30T19:51:12.836Z,53.30
2019-03-30T19:53:41.234Z,53.58
2019-03-30T19:56:09.650Z,53.96
2019-03-30T19:58:38.058Z,56.07
2019-03-30T20:01:06.972Z,55.41
2019-03-30T20:03:35.395Z,56.33
2019-03-30T20:06:03.787Z,55.75
2019-03-30T20:08:32.182Z,55.42
2019-03-30T20:11:00.596Z,57.75
2019-03-30T20:13:28.993Z,58.37
2019-03-30T20:15:57.387Z,58.02
2019-03-30T20:18:25.799Z,57.45
2019-03-30T20:20:54.194Z,56.18
2019-03-30T20:23:22.584Z,55.14
2019-03-30T20:25:51.008Z,55.35
2019-03-30T20:28:19.403Z,55.73
2019-03-30T20:30:47.813Z,55.76
2019-03-30T20:33:16.204Z,58.06
2019-03-30T20:35:44.596Z,58.95
2019-03-30T20:38:13.012Z,58.64
2019-03-30T20:40:41.420Z,58.54
2019-03-30T20:43:09.812Z,58.37
2019-03-30T20:45:38.236Z,58.85
2019-03-30T20:48:06.630Z,60.23
2019-03-30T20:50:35.007Z,59.43
2019-03-30T20:53:03.421Z,59.83
2019-03-30T20:55:33.883Z,58.46
2019-03-30T20:58:02.363Z,58.97
2019-03-30T21:00:30.930Z,59.03
2019-03-30T21:02:59.317Z,58.96
2019-03-30T21:05:27.777Z,59.21
2019-03-30T21:07:56.197Z,59.63
2019-03-30T21:10:24.583Z,59.50
2019-03-30T21:12:52.970Z,59.41
2019-03-30T21:15:21.408Z,60.44
2019-03-30T21:17:49.798Z,61.13
2019-03-30T21:20:18.192Z,60.11
2019-03-30T21:22:46.609Z,59.47
2019-03-30T21:25:15.082Z,60.68
2019-03-30T21:27:43.474Z,61.14
2019-03-30T21:30:12.419Z,61.88
2019-03-30T21:32:40.806Z,61.56
2019-03-30T21:35:09.264Z,61.41
2019-03-30T21:37:37.690Z,61.35
2019-03-30T21:40:06.817Z,62.12
2019-03-30T21:42:36.221Z,61.68
2019-03-30T21:45:07.146Z,61.95
2019-03-30T21:47:35.627Z,61.00
2019-03-30T21:50:05.670Z,63.31
2019-03-30T21:52:34.060Z,64.50
2019-03-30T21:55:02.456Z,65.19
2019-03-30T21:57:30.877Z,65.45
2019-03-30T22:00:09.895Z,64.69
2019-03-30T22:02:29.380Z,64.31
2019-03-30T22:04:57.785Z,64.06
2019-03-30T22:07:26.172Z,64.45
2019-03-30T22:09:54.634Z,65.01
2019-03-30T22:12:23.044Z,65.92
2019-03-30T22:14:51.439Z,65.20
2019-03-30T22:17:19.823Z,64.45
2019-03-30T22:19:48.235Z,62.19
2019-03-30T22:22:16.634Z,63.38
2019-03-30T22:24:45.266Z,63.49
2019-03-30T22:27:13.656Z,63.79
2019-03-30T22:29:42.041Z,64.99
2019-03-30T22:32:10.455Z,64.29
2019-03-30T22:34:38.839Z,65.86
2019-03-30T22:37:07.252Z,64.96
2019-03-30T22:39:35.641Z,64.23
2019-03-30T22:42:04.198Z,65.49
2019-03-30T22:44:32.622Z,65.35
2019-03-30T22:47:01.005Z,65.88
2019-03-30T22:49:29.397Z,64.14
2019-03-30T22:51:57.807Z,64.21
2019-03-30T22:54:26.202Z,64.41
2019-03-30T22:56:54.593Z,65.65
2019-03-30T22:59:23.015Z,67.63
2019-03-30T23:01:51.401Z,68.19
2019-03-30T23:04:19.786Z,68.33
2019-03-30T23:06:48.288Z,69.34
2019-03-30T23:09:16.675Z,68.73
2019-03-30T23:11:45.076Z,68.10
2019-03-30T23:14:13.533Z,68.17
2019-03-30T23:16:41.921Z,66.79
2019-03-30T23:19:10.311Z,68.31
2019-03-30T23:21:38.715Z,68.71
2019-03-30T23:24:07.104Z,68.30
2019-03-30T23:26:35.521Z,68.99
2019-03-30T23:29:04.160Z,67.11
2019-03-30T23:31:32.552Z,66.51
2019-03-30T23:34:00.935Z,67.59
2019-03-30T23:36:29.345Z,67.72
2019-03-30T23:38:57.733Z,66.92
2019-03-30T23:41:26.122Z,66.71
2019-03-30T23:43:54.832Z,68.03
2019-03-30T23:46:23.219Z,68.47
2019-03-30T23:48:51.611Z,68.63
2019-03-30T23:51:20.035Z,67.00
2019-03-30T23:53:48.421Z,66.02
2019-03-30T23:56:19.852Z,65.37
2019-03-30T23:58:48.253Z,65.90
